EGCC - Manchester Airport
Distance from station: E 5mi, 14km
Updated: 07/19/2018 9:50am
Clear
Clear
 Wind from WNW
Wind: WNW 8 mph , 13 km/h
Temperature: 73°F , 23°C
Dew Point: 48°F , 9°C
Humidity: 41%
Barometer: 30.06 inHg , 1018 hPa
Clouds: Clear
Visibility: 6 miles , 10 km
2018/07/19 16:50 EGCC 191650Z AUTO 29007KT 260V320 9999 NCD 23/09 Q1018 NOSIG